Terminal Aerodrome Forecast
Issued by NWS

Home | Current Version | Previous Version | Text Only | Print | Product List | Glossary On
Versions: 1 2 3 4 5 6 7 8 9 10 11 12 13 14 15 16 17 18 19 20 21
257
FTUS44 KLIX 201415 AAA
TAFMSY
TAF AMD
KMSY 201415Z 2014/2112 14010KT P6SM SCT015 BKN250
     FM201800 13006KT P6SM SCT030
     FM210300 14005KT 5SM -SHRA SCT005 BKN030
     FM210600 12005KT 3SM TSRA SCT003 OVC030CB
      TEMPO 2108/2112 3/4SM TSRA OVC003CB=

USA.gov is the U.S. government's official web portal to all federal, state and local government web resources and services.